Terminal Aerodrome Forecast
Issued by NWS Bismarck, ND

Home | Current Version | Previous Version | Graphics & Text | Print | Product List | Glossary On
Versions: 1 2 3 4 5 6 7 8 9 10 11 12 13 14 15 16
000
FTUS43 KBIS 231731
TAFBIS
TAF
KBIS 231731Z 2318/2418 15012KT P6SM SCT050
     FM232100 14013KT P6SM SCT025 BKN060
     FM240000 13010KT P6SM VCSH BKN030 OVC050
     FM240600 09006KT 6SM -RA BR OVC025
     FM241100 05006KT 4SM -RA BR OVC015=

USA.gov is the U.S. government's official web portal to all federal, state and local government web resources and services.